sensor_id;sensor_type;location;lat;lon;timestamp;P1;durP1;ratioP1;P2;durP2;ratioP2
13222;SDS011;6676;45.192;5.722;2023-03-03T00:02:21;29.55;;;19.80;;
13222;SDS011;6676;45.192;5.722;2023-03-03T00:05:13;30.08;;;21.05;;
13222;SDS011;6676;45.192;5.722;2023-03-03T00:08:06;28.87;;;20.40;;
13222;SDS011;6676;45.192;5.722;2023-03-03T00:10:58;28.30;;;19.70;;
13222;SDS011;6676;45.192;5.722;2023-03-03T00:13:51;27.58;;;18.12;;
13222;SDS011;6676;45.192;5.722;2023-03-03T00:16:43;26.75;;;18.42;;
13222;SDS011;6676;45.192;5.722;2023-03-03T00:19:36;27.75;;;19.35;;
13222;SDS011;6676;45.192;5.722;2023-03-03T00:22:29;26.12;;;18.32;;
13222;SDS011;6676;45.192;5.722;2023-03-03T00:25:29;30.62;;;19.32;;
13222;SDS011;6676;45.192;5.722;2023-03-03T00:28:23;30.57;;;21.37;;
13222;SDS011;6676;45.192;5.722;2023-03-03T00:31:18;32.93;;;22.17;;
13222;SDS011;6676;45.192;5.722;2023-03-03T00:34:18;30.62;;;20.85;;
13222;SDS011;6676;45.192;5.722;2023-03-03T00:37:16;30.20;;;20.70;;
13222;SDS011;6676;45.192;5.722;2023-03-03T00:40:17;31.97;;;21.60;;
13222;SDS011;6676;45.192;5.722;2023-03-03T00:43:12;32.53;;;22.25;;
13222;SDS011;6676;45.192;5.722;2023-03-03T00:46:07;29.98;;;20.62;;
13222;SDS011;6676;45.192;5.722;2023-03-03T00:49:21;32.85;;;21.85;;
13222;SDS011;6676;45.192;5.722;2023-03-03T00:51:56;31.48;;;22.13;;
13222;SDS011;6676;45.192;5.722;2023-03-03T00:54:47;32.48;;;22.50;;
13222;SDS011;6676;45.192;5.722;2023-03-03T00:57:40;32.48;;;22.52;;
13222;SDS011;6676;45.192;5.722;2023-03-03T01:00:31;29.67;;;20.40;;
13222;SDS011;6676;45.192;5.722;2023-03-03T01:03:24;31.50;;;20.72;;
13222;SDS011;6676;45.192;5.722;2023-03-03T01:06:16;31.60;;;21.60;;
13222;SDS011;6676;45.192;5.722;2023-03-03T01:09:07;30.68;;;20.80;;
13222;SDS011;6676;45.192;5.722;2023-03-03T01:11:58;32.23;;;21.82;;
13222;SDS011;6676;45.192;5.722;2023-03-03T01:14:51;33.90;;;21.85;;
13222;SDS011;6676;45.192;5.722;2023-03-03T01:17:42;31.15;;;22.35;;
13222;SDS011;6676;45.192;5.722;2023-03-03T01:20:33;31.82;;;21.30;;
13222;SDS011;6676;45.192;5.722;2023-03-03T01:23:25;30.50;;;20.60;;
13222;SDS011;6676;45.192;5.722;2023-03-03T01:26:17;31.90;;;20.65;;
13222;SDS011;6676;45.192;5.722;2023-03-03T01:29:09;30.12;;;20.97;;
13222;SDS011;6676;45.192;5.722;2023-03-03T01:32:00;29.40;;;20.05;;
13222;SDS011;6676;45.192;5.722;2023-03-03T01:34:52;29.25;;;19.80;;
13222;SDS011;6676;45.192;5.722;2023-03-03T01:37:43;29.60;;;21.35;;
13222;SDS011;6676;45.192;5.722;2023-03-03T01:40:35;31.37;;;21.97;;
13222;SDS011;6676;45.192;5.722;2023-03-03T01:43:27;31.97;;;21.77;;
13222;SDS011;6676;45.192;5.722;2023-03-03T01:46:26;29.42;;;20.70;;
13222;SDS011;6676;45.192;5.722;2023-03-03T01:49:46;32.53;;;21.60;;
13222;SDS011;6676;45.192;5.722;2023-03-03T01:52:46;36.42;;;22.82;;
13222;SDS011;6676;45.192;5.722;2023-03-03T01:55:38;30.85;;;20.72;;
13222;SDS011;6676;45.192;5.722;2023-03-03T01:58:33;29.85;;;20.43;;
13222;SDS011;6676;45.192;5.722;2023-03-03T02:01:26;29.02;;;20.27;;
13222;SDS011;6676;45.192;5.722;2023-03-03T02:04:20;32.88;;;22.37;;
13222;SDS011;6676;45.192;5.722;2023-03-03T02:07:11;31.15;;;21.33;;
13222;SDS011;6676;45.192;5.722;2023-03-03T02:10:06;30.68;;;21.00;;
13222;SDS011;6676;45.192;5.722;2023-03-03T02:13:01;35.40;;;22.87;;
13222;SDS011;6676;45.192;5.722;2023-03-03T02:15:52;32.75;;;21.77;;
13222;SDS011;6676;45.192;5.722;2023-03-03T02:18:44;33.65;;;21.70;;
13222;SDS011;6676;45.192;5.722;2023-03-03T02:21:36;33.80;;;21.42;;
13222;SDS011;6676;45.192;5.722;2023-03-03T02:24:29;35.90;;;22.10;;
13222;SDS011;6676;45.192;5.722;2023-03-03T02:27:24;38.75;;;23.77;;
13222;SDS011;6676;45.192;5.722;2023-03-03T02:30:18;34.75;;;21.07;;
13222;SDS011;6676;45.192;5.722;2023-03-03T02:33:11;32.73;;;22.73;;
13222;SDS011;6676;45.192;5.722;2023-03-03T02:36:03;33.83;;;22.42;;
13222;SDS011;6676;45.192;5.722;2023-03-03T02:39:04;35.40;;;22.93;;
13222;SDS011;6676;45.192;5.722;2023-03-03T02:41:59;34.05;;;22.52;;
13222;SDS011;6676;45.192;5.722;2023-03-03T02:44:54;34.18;;;22.77;;
13222;SDS011;6676;45.192;5.722;2023-03-03T02:47:48;36.08;;;22.58;;
13222;SDS011;6676;45.192;5.722;2023-03-03T02:50:41;37.10;;;23.32;;
13222;SDS011;6676;45.192;5.722;2023-03-03T02:53:32;35.30;;;22.60;;
13222;SDS011;6676;45.192;5.722;2023-03-03T02:56:24;33.38;;;22.05;;
13222;SDS011;6676;45.192;5.722;2023-03-03T02:59:16;33.45;;;22.50;;
13222;SDS011;6676;45.192;5.722;2023-03-03T03:02:09;35.45;;;22.45;;
13222;SDS011;6676;45.192;5.722;2023-03-03T03:05:01;35.38;;;22.45;;
13222;SDS011;6676;45.192;5.722;2023-03-03T03:07:53;34.05;;;21.73;;
13222;SDS011;6676;45.192;5.722;2023-03-03T03:10:44;36.45;;;22.82;;
13222;SDS011;6676;45.192;5.722;2023-03-03T03:13:35;34.15;;;22.80;;
13222;SDS011;6676;45.192;5.722;2023-03-03T03:16:28;35.48;;;23.50;;
13222;SDS011;6676;45.192;5.722;2023-03-03T03:19:19;34.33;;;22.02;;
13222;SDS011;6676;45.192;5.722;2023-03-03T03:22:11;33.95;;;21.82;;
13222;SDS011;6676;45.192;5.722;2023-03-03T03:25:02;35.05;;;21.97;;
13222;SDS011;6676;45.192;5.722;2023-03-03T03:27:54;33.48;;;22.15;;
13222;SDS011;6676;45.192;5.722;2023-03-03T03:30:45;36.00;;;23.98;;
13222;SDS011;6676;45.192;5.722;2023-03-03T03:33:39;33.78;;;21.93;;
13222;SDS011;6676;45.192;5.722;2023-03-03T03:36:32;32.10;;;22.37;;
13222;SDS011;6676;45.192;5.722;2023-03-03T03:39:23;34.43;;;22.80;;
13222;SDS011;6676;45.192;5.722;2023-03-03T03:42:16;32.80;;;22.52;;
13222;SDS011;6676;45.192;5.722;2023-03-03T03:45:08;36.33;;;22.42;;
13222;SDS011;6676;45.192;5.722;2023-03-03T03:48:04;35.13;;;22.58;;
13222;SDS011;6676;45.192;5.722;2023-03-03T03:50:56;34.90;;;22.90;;
13222;SDS011;6676;45.192;5.722;2023-03-03T03:53:49;32.28;;;22.67;;
13222;SDS011;6676;45.192;5.722;2023-03-03T03:56:43;34.38;;;22.65;;
13222;SDS011;6676;45.192;5.722;2023-03-03T03:59:34;34.40;;;22.85;;
13222;SDS011;6676;45.192;5.722;2023-03-03T04:02:26;35.75;;;22.35;;
13222;SDS011;6676;45.192;5.722;2023-03-03T04:05:19;35.52;;;22.95;;
13222;SDS011;6676;45.192;5.722;2023-03-03T04:08:11;37.85;;;24.32;;
13222;SDS011;6676;45.192;5.722;2023-03-03T04:11:03;33.83;;;23.42;;
13222;SDS011;6676;45.192;5.722;2023-03-03T04:13:55;36.08;;;23.45;;
13222;SDS011;6676;45.192;5.722;2023-03-03T04:16:47;34.92;;;22.98;;
13222;SDS011;6676;45.192;5.722;2023-03-03T04:19:38;31.62;;;21.07;;
13222;SDS011;6676;45.192;5.722;2023-03-03T04:22:29;37.05;;;23.87;;
13222;SDS011;6676;45.192;5.722;2023-03-03T04:25:24;35.38;;;22.48;;
13222;SDS011;6676;45.192;5.722;2023-03-03T04:28:15;39.50;;;23.32;;
13222;SDS011;6676;45.192;5.722;2023-03-03T04:31:07;32.83;;;22.45;;
13222;SDS011;6676;45.192;5.722;2023-03-03T04:33:59;33.05;;;21.30;;
13222;SDS011;6676;45.192;5.722;2023-03-03T04:36:51;35.10;;;23.35;;
13222;SDS011;6676;45.192;5.722;2023-03-03T04:39:43;33.55;;;22.80;;
13222;SDS011;6676;45.192;5.722;2023-03-03T04:42:34;35.45;;;23.42;;
13222;SDS011;6676;45.192;5.722;2023-03-03T04:45:27;36.50;;;24.43;;
13222;SDS011;6676;45.192;5.722;2023-03-03T04:48:18;34.78;;;22.98;;
13222;SDS011;6676;45.192;5.722;2023-03-03T04:51:10;34.65;;;23.25;;
13222;SDS011;6676;45.192;5.722;2023-03-03T04:54:04;37.13;;;23.52;;
13222;SDS011;6676;45.192;5.722;2023-03-03T04:56:58;34.00;;;21.75;;
13222;SDS011;6676;45.192;5.722;2023-03-03T04:59:50;32.60;;;22.10;;
13222;SDS011;6676;45.192;5.722;2023-03-03T05:02:41;33.75;;;22.82;;
13222;SDS011;6676;45.192;5.722;2023-03-03T05:05:34;33.92;;;23.00;;
13222;SDS011;6676;45.192;5.722;2023-03-03T05:08:26;36.28;;;23.65;;
13222;SDS011;6676;45.192;5.722;2023-03-03T05:11:23;35.92;;;23.20;;
13222;SDS011;6676;45.192;5.722;2023-03-03T05:17:06;34.20;;;22.93;;
13222;SDS011;6676;45.192;5.722;2023-03-03T05:19:59;35.10;;;22.55;;
13222;SDS011;6676;45.192;5.722;2023-03-03T05:22:52;36.77;;;22.87;;
13222;SDS011;6676;45.192;5.722;2023-03-03T05:25:44;34.38;;;23.38;;
13222;SDS011;6676;45.192;5.722;2023-03-03T05:28:37;33.05;;;22.77;;
13222;SDS011;6676;45.192;5.722;2023-03-03T05:31:28;34.78;;;22.95;;
13222;SDS011;6676;45.192;5.722;2023-03-03T05:34:19;33.50;;;22.80;;
13222;SDS011;6676;45.192;5.722;2023-03-03T05:37:11;35.75;;;23.45;;
13222;SDS011;6676;45.192;5.722;2023-03-03T05:40:03;34.10;;;22.95;;
13222;SDS011;6676;45.192;5.722;2023-03-03T05:42:56;34.83;;;23.40;;
13222;SDS011;6676;45.192;5.722;2023-03-03T05:45:48;34.43;;;22.48;;
13222;SDS011;6676;45.192;5.722;2023-03-03T05:48:44;36.60;;;23.52;;
13222;SDS011;6676;45.192;5.722;2023-03-03T05:51:25;34.88;;;23.42;;
13222;SDS011;6676;45.192;5.722;2023-03-03T05:54:16;32.53;;;22.77;;
13222;SDS011;6676;45.192;5.722;2023-03-03T05:57:08;33.48;;;22.67;;
13222;SDS011;6676;45.192;5.722;2023-03-03T05:59:59;34.50;;;22.87;;
13222;SDS011;6676;45.192;5.722;2023-03-03T06:02:53;34.18;;;22.90;;
13222;SDS011;6676;45.192;5.722;2023-03-03T06:05:44;35.15;;;23.40;;
13222;SDS011;6676;45.192;5.722;2023-03-03T06:08:37;36.00;;;24.65;;
13222;SDS011;6676;45.192;5.722;2023-03-03T06:11:29;33.40;;;23.40;;
13222;SDS011;6676;45.192;5.722;2023-03-03T06:14:21;33.45;;;22.62;;
13222;SDS011;6676;45.192;5.722;2023-03-03T06:17:14;33.90;;;23.45;;
13222;SDS011;6676;45.192;5.722;2023-03-03T06:20:07;36.35;;;22.90;;
13222;SDS011;6676;45.192;5.722;2023-03-03T06:23:06;34.58;;;23.40;;
13222;SDS011;6676;45.192;5.722;2023-03-03T06:26:04;36.10;;;23.55;;
13222;SDS011;6676;45.192;5.722;2023-03-03T06:28:55;35.25;;;23.77;;
13222;SDS011;6676;45.192;5.722;2023-03-03T06:31:47;36.08;;;24.05;;
13222;SDS011;6676;45.192;5.722;2023-03-03T06:34:39;35.50;;;24.23;;
13222;SDS011;6676;45.192;5.722;2023-03-03T06:37:32;33.90;;;23.45;;
13222;SDS011;6676;45.192;5.722;2023-03-03T06:40:23;33.23;;;22.02;;
13222;SDS011;6676;45.192;5.722;2023-03-03T06:43:15;36.03;;;23.70;;
13222;SDS011;6676;45.192;5.722;2023-03-03T06:46:08;35.78;;;24.02;;
13222;SDS011;6676;45.192;5.722;2023-03-03T06:49:00;35.00;;;23.65;;
13222;SDS011;6676;45.192;5.722;2023-03-03T06:51:52;34.03;;;23.80;;
13222;SDS011;6676;45.192;5.722;2023-03-03T06:54:44;35.43;;;24.77;;
13222;SDS011;6676;45.192;5.722;2023-03-03T06:57:46;33.38;;;22.77;;
13222;SDS011;6676;45.192;5.722;2023-03-03T07:00:39;38.13;;;24.40;;
13222;SDS011;6676;45.192;5.722;2023-03-03T07:03:32;38.05;;;24.52;;
13222;SDS011;6676;45.192;5.722;2023-03-03T07:06:25;39.13;;;25.25;;
13222;SDS011;6676;45.192;5.722;2023-03-03T07:09:19;36.10;;;24.18;;
13222;SDS011;6676;45.192;5.722;2023-03-03T07:12:14;38.67;;;25.72;;
13222;SDS011;6676;45.192;5.722;2023-03-03T07:15:12;39.65;;;24.92;;
13222;SDS011;6676;45.192;5.722;2023-03-03T07:18:22;37.83;;;23.62;;
13222;SDS011;6676;45.192;5.722;2023-03-03T07:21:34;39.42;;;24.85;;
13222;SDS011;6676;45.192;5.722;2023-03-03T07:24:27;36.23;;;23.85;;
13222;SDS011;6676;45.192;5.722;2023-03-03T07:27:22;41.02;;;24.98;;
13222;SDS011;6676;45.192;5.722;2023-03-03T07:30:20;35.15;;;24.32;;
13222;SDS011;6676;45.192;5.722;2023-03-03T07:33:18;35.50;;;23.92;;
13222;SDS011;6676;45.192;5.722;2023-03-03T07:36:21;35.80;;;23.75;;
13222;SDS011;6676;45.192;5.722;2023-03-03T07:39:25;36.85;;;24.07;;
13222;SDS011;6676;45.192;5.722;2023-03-03T07:42:21;37.75;;;25.12;;
13222;SDS011;6676;45.192;5.722;2023-03-03T07:45:26;35.65;;;23.27;;
13222;SDS011;6676;45.192;5.722;2023-03-03T07:48:24;34.45;;;23.83;;
13222;SDS011;6676;45.192;5.722;2023-03-03T07:51:19;38.50;;;24.25;;
13222;SDS011;6676;45.192;5.722;2023-03-03T07:54:21;36.75;;;24.37;;
13222;SDS011;6676;45.192;5.722;2023-03-03T07:57:23;36.95;;;23.50;;
13222;SDS011;6676;45.192;5.722;2023-03-03T08:03:47;37.58;;;25.05;;
13222;SDS011;6676;45.192;5.722;2023-03-03T08:06:50;33.73;;;23.60;;
13222;SDS011;6676;45.192;5.722;2023-03-03T08:09:44;36.85;;;24.02;;
13222;SDS011;6676;45.192;5.722;2023-03-03T08:12:42;36.60;;;24.20;;
13222;SDS011;6676;45.192;5.722;2023-03-03T08:15:37;38.85;;;24.63;;
13222;SDS011;6676;45.192;5.722;2023-03-03T08:18:33;37.75;;;23.80;;
13222;SDS011;6676;45.192;5.722;2023-03-03T08:21:27;34.30;;;24.18;;
13222;SDS011;6676;45.192;5.722;2023-03-03T08:24:19;39.58;;;25.37;;
13222;SDS011;6676;45.192;5.722;2023-03-03T08:27:11;35.63;;;24.37;;
13222;SDS011;6676;45.192;5.722;2023-03-03T08:30:03;35.23;;;24.07;;
13222;SDS011;6676;45.192;5.722;2023-03-03T08:32:56;36.68;;;25.17;;
13222;SDS011;6676;45.192;5.722;2023-03-03T08:35:49;35.17;;;25.08;;
13222;SDS011;6676;45.192;5.722;2023-03-03T08:38:40;43.95;;;27.00;;
13222;SDS011;6676;45.192;5.722;2023-03-03T08:41:34;40.25;;;26.55;;
13222;SDS011;6676;45.192;5.722;2023-03-03T08:44:27;37.83;;;25.00;;
13222;SDS011;6676;45.192;5.722;2023-03-03T08:47:19;39.40;;;25.20;;
13222;SDS011;6676;45.192;5.722;2023-03-03T08:50:11;38.83;;;25.43;;
13222;SDS011;6676;45.192;5.722;2023-03-03T08:52:52;42.65;;;26.75;;
13222;SDS011;6676;45.192;5.722;2023-03-03T08:55:45;37.42;;;25.02;;
13222;SDS011;6676;45.192;5.722;2023-03-03T08:58:37;38.92;;;25.60;;
13222;SDS011;6676;45.192;5.722;2023-03-03T09:01:31;37.05;;;26.02;;
13222;SDS011;6676;45.192;5.722;2023-03-03T09:04:24;35.58;;;24.95;;
13222;SDS011;6676;45.192;5.722;2023-03-03T09:07:15;35.85;;;25.55;;
13222;SDS011;6676;45.192;5.722;2023-03-03T09:10:26;38.25;;;26.62;;
13222;SDS011;6676;45.192;5.722;2023-03-03T09:13:21;38.23;;;26.25;;
13222;SDS011;6676;45.192;5.722;2023-03-03T09:16:20;39.13;;;26.25;;
13222;SDS011;6676;45.192;5.722;2023-03-03T09:19:20;41.15;;;26.65;;
13222;SDS011;6676;45.192;5.722;2023-03-03T09:22:17;40.85;;;25.85;;
13222;SDS011;6676;45.192;5.722;2023-03-03T09:25:16;38.20;;;26.25;;
13222;SDS011;6676;45.192;5.722;2023-03-03T09:28:18;37.85;;;24.72;;
13222;SDS011;6676;45.192;5.722;2023-03-03T09:31:24;37.65;;;24.63;;
13222;SDS011;6676;45.192;5.722;2023-03-03T09:34:23;41.80;;;27.58;;
13222;SDS011;6676;45.192;5.722;2023-03-03T09:37:19;40.35;;;26.33;;
13222;SDS011;6676;45.192;5.722;2023-03-03T09:40:18;36.77;;;25.97;;
13222;SDS011;6676;45.192;5.722;2023-03-03T09:43:08;39.55;;;26.68;;
13222;SDS011;6676;45.192;5.722;2023-03-03T09:46:04;38.42;;;26.50;;
13222;SDS011;6676;45.192;5.722;2023-03-03T09:49:02;39.27;;;27.10;;
13222;SDS011;6676;45.192;5.722;2023-03-03T09:51:57;41.58;;;27.37;;
13222;SDS011;6676;45.192;5.722;2023-03-03T09:55:17;39.18;;;27.52;;
13222;SDS011;6676;45.192;5.722;2023-03-03T09:58:23;41.58;;;26.60;;
13222;SDS011;6676;45.192;5.722;2023-03-03T10:01:40;38.60;;;26.02;;
13222;SDS011;6676;45.192;5.722;2023-03-03T10:05:02;39.50;;;25.43;;
13222;SDS011;6676;45.192;5.722;2023-03-03T10:08:16;39.58;;;26.73;;
13222;SDS011;6676;45.192;5.722;2023-03-03T10:11:40;39.48;;;25.92;;
13222;SDS011;6676;45.192;5.722;2023-03-03T10:14:54;41.53;;;27.13;;
13222;SDS011;6676;45.192;5.722;2023-03-03T10:17:50;41.08;;;27.15;;
13222;SDS011;6676;45.192;5.722;2023-03-03T10:20:51;45.33;;;27.30;;
13222;SDS011;6676;45.192;5.722;2023-03-03T10:24:02;44.93;;;27.93;;
13222;SDS011;6676;45.192;5.722;2023-03-03T10:27:10;37.67;;;26.68;;
13222;SDS011;6676;45.192;5.722;2023-03-03T10:30:06;30.48;;;19.90;;
13222;SDS011;6676;45.192;5.722;2023-03-03T10:33:00;40.00;;;27.52;;
13222;SDS011;6676;45.192;5.722;2023-03-03T10:39:16;38.02;;;27.77;;
13222;SDS011;6676;45.192;5.722;2023-03-03T10:42:22;41.58;;;28.25;;
13222;SDS011;6676;45.192;5.722;2023-03-03T11:02:40;40.52;;;27.40;;
13222;SDS011;6676;45.192;5.722;2023-03-03T11:05:48;41.60;;;28.45;;
13222;SDS011;6676;45.192;5.722;2023-03-03T11:08:43;39.67;;;28.27;;
13222;SDS011;6676;45.192;5.722;2023-03-03T11:11:39;40.75;;;27.40;;
13222;SDS011;6676;45.192;5.722;2023-03-03T11:14:35;41.73;;;28.02;;
13222;SDS011;6676;45.192;5.722;2023-03-03T11:17:32;41.02;;;26.85;;
13222;SDS011;6676;45.192;5.722;2023-03-03T11:20:40;43.30;;;29.72;;
13222;SDS011;6676;45.192;5.722;2023-03-03T11:27:02;38.67;;;26.20;;
13222;SDS011;6676;45.192;5.722;2023-03-03T11:33:00;37.67;;;26.75;;
13222;SDS011;6676;45.192;5.722;2023-03-03T11:35:55;37.05;;;24.50;;
13222;SDS011;6676;45.192;5.722;2023-03-03T11:38:52;37.98;;;24.55;;
13222;SDS011;6676;45.192;5.722;2023-03-03T11:41:49;43.13;;;28.95;;
13222;SDS011;6676;45.192;5.722;2023-03-03T11:44:45;40.08;;;27.62;;
13222;SDS011;6676;45.192;5.722;2023-03-03T11:47:33;38.30;;;23.60;;
13222;SDS011;6676;45.192;5.722;2023-03-03T11:50:35;39.75;;;27.98;;
13222;SDS011;6676;45.192;5.722;2023-03-03T11:53:33;42.43;;;27.27;;
13222;SDS011;6676;45.192;5.722;2023-03-03T11:56:33;40.75;;;27.00;;
13222;SDS011;6676;45.192;5.722;2023-03-03T11:59:40;39.73;;;26.68;;
13222;SDS011;6676;45.192;5.722;2023-03-03T12:02:48;41.13;;;27.15;;
13222;SDS011;6676;45.192;5.722;2023-03-03T12:05:46;40.30;;;27.52;;
13222;SDS011;6676;45.192;5.722;2023-03-03T12:09:05;35.55;;;24.92;;
13222;SDS011;6676;45.192;5.722;2023-03-03T12:12:12;30.15;;;19.95;;
13222;SDS011;6676;45.192;5.722;2023-03-03T12:15:08;38.15;;;26.05;;
13222;SDS011;6676;45.192;5.722;2023-03-03T12:18:09;38.42;;;26.70;;
13222;SDS011;6676;45.192;5.722;2023-03-03T12:21:12;42.45;;;27.73;;
13222;SDS011;6676;45.192;5.722;2023-03-03T12:24:15;39.67;;;26.77;;
13222;SDS011;6676;45.192;5.722;2023-03-03T12:27:22;40.88;;;27.87;;
13222;SDS011;6676;45.192;5.722;2023-03-03T12:30:21;40.78;;;27.85;;
13222;SDS011;6676;45.192;5.722;2023-03-03T12:33:20;39.85;;;27.50;;
13222;SDS011;6676;45.192;5.722;2023-03-03T12:36:18;43.15;;;27.67;;
13222;SDS011;6676;45.192;5.722;2023-03-03T12:39:32;39.42;;;27.80;;
13222;SDS011;6676;45.192;5.722;2023-03-03T12:42:32;36.58;;;22.77;;
13222;SDS011;6676;45.192;5.722;2023-03-03T12:46:09;37.53;;;25.35;;
13222;SDS011;6676;45.192;5.722;2023-03-03T12:49:02;40.15;;;26.00;;
13222;SDS011;6676;45.192;5.722;2023-03-03T12:52:01;33.35;;;22.25;;
13222;SDS011;6676;45.192;5.722;2023-03-03T12:55:00;34.20;;;22.62;;
13222;SDS011;6676;45.192;5.722;2023-03-03T12:57:57;39.33;;;27.65;;
13222;SDS011;6676;45.192;5.722;2023-03-03T13:00:52;40.78;;;25.30;;
13222;SDS011;6676;45.192;5.722;2023-03-03T13:03:48;34.40;;;21.10;;
13222;SDS011;6676;45.192;5.722;2023-03-03T13:06:45;40.25;;;26.55;;
13222;SDS011;6676;45.192;5.722;2023-03-03T13:09:54;40.45;;;27.52;;
13222;SDS011;6676;45.192;5.722;2023-03-03T13:12:43;37.55;;;23.07;;
13222;SDS011;6676;45.192;5.722;2023-03-03T13:15:38;40.65;;;25.00;;
13222;SDS011;6676;45.192;5.722;2023-03-03T13:18:38;34.00;;;20.10;;
13222;SDS011;6676;45.192;5.722;2023-03-03T13:21:53;36.20;;;24.10;;
13222;SDS011;6676;45.192;5.722;2023-03-03T13:24:54;42.55;;;27.07;;
13222;SDS011;6676;45.192;5.722;2023-03-03T13:27:49;39.50;;;27.77;;
13222;SDS011;6676;45.192;5.722;2023-03-03T13:30:45;40.03;;;22.50;;
13222;SDS011;6676;45.192;5.722;2023-03-03T13:33:38;40.28;;;27.80;;
13222;SDS011;6676;45.192;5.722;2023-03-03T13:36:43;41.20;;;26.80;;
13222;SDS011;6676;45.192;5.722;2023-03-03T13:39:41;37.13;;;25.32;;
13222;SDS011;6676;45.192;5.722;2023-03-03T13:42:39;46.35;;;26.40;;
13222;SDS011;6676;45.192;5.722;2023-03-03T13:45:36;38.53;;;25.68;;
13222;SDS011;6676;45.192;5.722;2023-03-03T13:52:12;40.12;;;24.45;;
13222;SDS011;6676;45.192;5.722;2023-03-03T13:55:13;40.73;;;27.32;;
13222;SDS011;6676;45.192;5.722;2023-03-03T13:58:11;34.67;;;23.30;;
13222;SDS011;6676;45.192;5.722;2023-03-03T14:01:16;39.60;;;26.35;;
13222;SDS011;6676;45.192;5.722;2023-03-03T14:04:33;38.83;;;26.30;;
13222;SDS011;6676;45.192;5.722;2023-03-03T14:07:31;34.87;;;22.83;;
13222;SDS011;6676;45.192;5.722;2023-03-03T14:10:26;38.95;;;25.97;;
13222;SDS011;6676;45.192;5.722;2023-03-03T14:13:24;46.37;;;29.18;;
13222;SDS011;6676;45.192;5.722;2023-03-03T14:16:20;36.63;;;21.97;;
13222;SDS011;6676;45.192;5.722;2023-03-03T14:19:17;40.78;;;27.62;;
13222;SDS011;6676;45.192;5.722;2023-03-03T14:22:17;38.48;;;23.90;;
13222;SDS011;6676;45.192;5.722;2023-03-03T14:25:12;39.55;;;25.88;;
13222;SDS011;6676;45.192;5.722;2023-03-03T14:28:08;39.48;;;26.85;;
13222;SDS011;6676;45.192;5.722;2023-03-03T14:31:05;35.23;;;23.55;;
13222;SDS011;6676;45.192;5.722;2023-03-03T14:34:14;36.60;;;21.30;;
13222;SDS011;6676;45.192;5.722;2023-03-03T14:36:58;38.17;;;26.77;;
13222;SDS011;6676;45.192;5.722;2023-03-03T14:40:11;34.85;;;21.50;;
13222;SDS011;6676;45.192;5.722;2023-03-03T14:43:18;35.63;;;24.40;;
13222;SDS011;6676;45.192;5.722;2023-03-03T14:46:27;34.95;;;23.20;;
13222;SDS011;6676;45.192;5.722;2023-03-03T14:49:28;39.65;;;27.17;;
13222;SDS011;6676;45.192;5.722;2023-03-03T14:52:27;40.90;;;28.17;;
13222;SDS011;6676;45.192;5.722;2023-03-03T14:55:30;40.12;;;27.50;;
13222;SDS011;6676;45.192;5.722;2023-03-03T14:58:31;39.53;;;26.50;;
13222;SDS011;6676;45.192;5.722;2023-03-03T15:01:33;40.58;;;27.87;;
13222;SDS011;6676;45.192;5.722;2023-03-03T15:04:26;39.15;;;26.62;;
13222;SDS011;6676;45.192;5.722;2023-03-03T15:07:22;38.00;;;26.75;;
13222;SDS011;6676;45.192;5.722;2023-03-03T15:10:28;41.88;;;26.65;;
13222;SDS011;6676;45.192;5.722;2023-03-03T15:13:32;36.68;;;25.82;;
13222;SDS011;6676;45.192;5.722;2023-03-03T15:16:25;34.67;;;23.22;;
13222;SDS011;6676;45.192;5.722;2023-03-03T15:19:44;36.45;;;24.20;;
13222;SDS011;6676;45.192;5.722;2023-03-03T15:22:44;41.10;;;25.92;;
13222;SDS011;6676;45.192;5.722;2023-03-03T15:28:37;32.70;;;23.18;;
13222;SDS011;6676;45.192;5.722;2023-03-03T15:31:35;37.42;;;25.52;;
13222;SDS011;6676;45.192;5.722;2023-03-03T15:34:36;36.58;;;24.40;;
13222;SDS011;6676;45.192;5.722;2023-03-03T15:37:35;29.05;;;18.32;;
13222;SDS011;6676;45.192;5.722;2023-03-03T15:40:31;39.42;;;26.33;;
13222;SDS011;6676;45.192;5.722;2023-03-03T15:43:55;37.03;;;21.75;;
13222;SDS011;6676;45.192;5.722;2023-03-03T15:47:01;37.70;;;24.92;;
13222;SDS011;6676;45.192;5.722;2023-03-03T15:53:19;39.25;;;25.70;;
13222;SDS011;6676;45.192;5.722;2023-03-03T15:56:27;38.10;;;25.80;;
13222;SDS011;6676;45.192;5.722;2023-03-03T15:59:26;37.38;;;25.35;;
13222;SDS011;6676;45.192;5.722;2023-03-03T16:15:46;39.45;;;29.35;;
13222;SDS011;6676;45.192;5.722;2023-03-03T16:18:44;39.18;;;26.50;;
13222;SDS011;6676;45.192;5.722;2023-03-03T16:21:49;38.85;;;24.12;;
13222;SDS011;6676;45.192;5.722;2023-03-03T16:24:53;34.70;;;23.92;;
13222;SDS011;6676;45.192;5.722;2023-03-03T16:27:51;33.65;;;22.42;;
13222;SDS011;6676;45.192;5.722;2023-03-03T16:30:47;36.75;;;23.50;;
13222;SDS011;6676;45.192;5.722;2023-03-03T16:33:42;32.53;;;18.92;;
13222;SDS011;6676;45.192;5.722;2023-03-03T16:36:37;39.33;;;24.87;;
13222;SDS011;6676;45.192;5.722;2023-03-03T16:39:35;35.28;;;24.80;;
13222;SDS011;6676;45.192;5.722;2023-03-03T16:42:32;37.05;;;22.07;;
13222;SDS011;6676;45.192;5.722;2023-03-03T16:45:25;34.75;;;24.12;;
13222;SDS011;6676;45.192;5.722;2023-03-03T16:48:24;30.10;;;20.37;;
13222;SDS011;6676;45.192;5.722;2023-03-03T16:51:47;26.50;;;16.10;;
13222;SDS011;6676;45.192;5.722;2023-03-03T16:55:24;27.70;;;18.07;;
13222;SDS011;6676;45.192;5.722;2023-03-03T16:58:23;33.08;;;21.70;;
13222;SDS011;6676;45.192;5.722;2023-03-03T17:01:22;35.60;;;23.52;;
13222;SDS011;6676;45.192;5.722;2023-03-03T17:04:20;36.70;;;23.62;;
13222;SDS011;6676;45.192;5.722;2023-03-03T17:07:21;37.25;;;22.98;;
13222;SDS011;6676;45.192;5.722;2023-03-03T17:10:25;28.55;;;19.20;;
13222;SDS011;6676;45.192;5.722;2023-03-03T17:13:25;33.75;;;21.73;;
13222;SDS011;6676;45.192;5.722;2023-03-03T17:16:21;29.10;;;17.60;;
13222;SDS011;6676;45.192;5.722;2023-03-03T17:19:26;37.23;;;24.43;;
13222;SDS011;6676;45.192;5.722;2023-03-03T17:22:27;35.43;;;22.30;;
13222;SDS011;6676;45.192;5.722;2023-03-03T17:25:24;27.77;;;16.32;;
13222;SDS011;6676;45.192;5.722;2023-03-03T17:28:28;26.02;;;16.40;;
13222;SDS011;6676;45.192;5.722;2023-03-03T17:31:25;32.40;;;23.07;;
13222;SDS011;6676;45.192;5.722;2023-03-03T17:34:16;23.27;;;13.68;;
13222;SDS011;6676;45.192;5.722;2023-03-03T17:37:20;30.65;;;20.55;;
13222;SDS011;6676;45.192;5.722;2023-03-03T17:40:22;30.23;;;19.75;;
13222;SDS011;6676;45.192;5.722;2023-03-03T17:43:18;32.42;;;21.82;;
13222;SDS011;6676;45.192;5.722;2023-03-03T17:46:14;32.88;;;20.90;;
13222;SDS011;6676;45.192;5.722;2023-03-03T17:49:16;28.70;;;17.77;;
13222;SDS011;6676;45.192;5.722;2023-03-03T17:52:24;35.00;;;22.77;;
13222;SDS011;6676;45.192;5.722;2023-03-03T17:55:45;23.60;;;13.43;;
13222;SDS011;6676;45.192;5.722;2023-03-03T17:59:02;28.40;;;19.42;;
13222;SDS011;6676;45.192;5.722;2023-03-03T18:09:03;27.95;;;16.60;;
13222;SDS011;6676;45.192;5.722;2023-03-03T18:12:08;31.82;;;20.37;;
13222;SDS011;6676;45.192;5.722;2023-03-03T18:18:02;30.27;;;17.82;;
13222;SDS011;6676;45.192;5.722;2023-03-03T18:20:57;24.82;;;15.58;;
13222;SDS011;6676;45.192;5.722;2023-03-03T18:23:56;33.40;;;21.03;;
13222;SDS011;6676;45.192;5.722;2023-03-03T18:27:28;32.67;;;20.62;;
13222;SDS011;6676;45.192;5.722;2023-03-03T18:30:26;32.28;;;22.00;;
13222;SDS011;6676;45.192;5.722;2023-03-03T18:33:31;31.42;;;19.32;;
13222;SDS011;6676;45.192;5.722;2023-03-03T18:36:35;28.52;;;18.50;;
13222;SDS011;6676;45.192;5.722;2023-03-03T18:39:37;33.33;;;21.93;;